sensor_id;sensor_type;location;lat;lon;timestamp;P1;durP1;ratioP1;P2;durP2;ratioP2
12145;SDS011;6136;47.032;15.398;2023-10-31T00:00:28;9.07;;;3.60;;
12145;SDS011;6136;47.032;15.398;2023-10-31T00:02:56;4.37;;;3.47;;
12145;SDS011;6136;47.032;15.398;2023-10-31T00:05:25;6.40;;;3.43;;
12145;SDS011;6136;47.032;15.398;2023-10-31T00:07:53;5.57;;;3.40;;
12145;SDS011;6136;47.032;15.398;2023-10-31T00:10:21;4.97;;;3.63;;
12145;SDS011;6136;47.032;15.398;2023-10-31T00:12:49;8.53;;;3.63;;
12145;SDS011;6136;47.032;15.398;2023-10-31T00:15:18;4.07;;;3.40;;
12145;SDS011;6136;47.032;15.398;2023-10-31T00:17:46;8.93;;;3.73;;
12145;SDS011;6136;47.032;15.398;2023-10-31T00:20:14;4.40;;;3.10;;
12145;SDS011;6136;47.032;15.398;2023-10-31T00:22:43;5.00;;;3.17;;
12145;SDS011;6136;47.032;15.398;2023-10-31T00:25:11;5.70;;;3.40;;
12145;SDS011;6136;47.032;15.398;2023-10-31T00:27:39;5.23;;;3.30;;
12145;SDS011;6136;47.032;15.398;2023-10-31T00:30:07;4.77;;;3.37;;
12145;SDS011;6136;47.032;15.398;2023-10-31T00:32:37;7.30;;;3.43;;
12145;SDS011;6136;47.032;15.398;2023-10-31T00:35:05;4.50;;;3.27;;
12145;SDS011;6136;47.032;15.398;2023-10-31T00:37:33;3.90;;;3.17;;
12145;SDS011;6136;47.032;15.398;2023-10-31T00:40:01;5.37;;;3.17;;
12145;SDS011;6136;47.032;15.398;2023-10-31T00:42:29;10.07;;;4.13;;
12145;SDS011;6136;47.032;15.398;2023-10-31T00:44:58;7.57;;;3.50;;
12145;SDS011;6136;47.032;15.398;2023-10-31T00:47:26;5.07;;;3.47;;
12145;SDS011;6136;47.032;15.398;2023-10-31T00:49:56;5.10;;;3.27;;
12145;SDS011;6136;47.032;15.398;2023-10-31T00:52:24;4.30;;;3.03;;
12145;SDS011;6136;47.032;15.398;2023-10-31T00:54:52;7.33;;;3.10;;
12145;SDS011;6136;47.032;15.398;2023-10-31T00:57:20;2.83;;;2.60;;
12145;SDS011;6136;47.032;15.398;2023-10-31T00:59:48;3.60;;;2.73;;
12145;SDS011;6136;47.032;15.398;2023-10-31T01:02:16;3.47;;;3.17;;
12145;SDS011;6136;47.032;15.398;2023-10-31T01:04:44;8.33;;;3.10;;
12145;SDS011;6136;47.032;15.398;2023-10-31T01:07:14;4.93;;;2.80;;
12145;SDS011;6136;47.032;15.398;2023-10-31T01:09:44;4.50;;;2.93;;
12145;SDS011;6136;47.032;15.398;2023-10-31T01:12:12;3.07;;;2.73;;
12145;SDS011;6136;47.032;15.398;2023-10-31T01:14:40;7.83;;;2.43;;
12145;SDS011;6136;47.032;15.398;2023-10-31T01:17:08;2.67;;;2.33;;
12145;SDS011;6136;47.032;15.398;2023-10-31T01:19:36;3.77;;;2.97;;
12145;SDS011;6136;47.032;15.398;2023-10-31T01:22:04;9.67;;;2.53;;
12145;SDS011;6136;47.032;15.398;2023-10-31T01:24:36;4.47;;;2.63;;
12145;SDS011;6136;47.032;15.398;2023-10-31T01:27:04;6.40;;;2.60;;
12145;SDS011;6136;47.032;15.398;2023-10-31T01:29:32;4.03;;;2.00;;
12145;SDS011;6136;47.032;15.398;2023-10-31T01:32:00;3.47;;;1.80;;
12145;SDS011;6136;47.032;15.398;2023-10-31T01:34:38;4.20;;;1.77;;
12145;SDS011;6136;47.032;15.398;2023-10-31T01:37:06;3.80;;;2.30;;
12145;SDS011;6136;47.032;15.398;2023-10-31T01:39:37;3.80;;;2.00;;
12145;SDS011;6136;47.032;15.398;2023-10-31T01:42:05;2.80;;;2.03;;
12145;SDS011;6136;47.032;15.398;2023-10-31T01:44:33;3.73;;;2.00;;
12145;SDS011;6136;47.032;15.398;2023-10-31T01:47:01;4.37;;;2.00;;
12145;SDS011;6136;47.032;15.398;2023-10-31T01:49:29;3.07;;;1.60;;
12145;SDS011;6136;47.032;15.398;2023-10-31T01:51:57;4.10;;;2.30;;
12145;SDS011;6136;47.032;15.398;2023-10-31T01:54:25;2.43;;;1.97;;
12145;SDS011;6136;47.032;15.398;2023-10-31T01:56:55;9.30;;;2.40;;
12145;SDS011;6136;47.032;15.398;2023-10-31T01:59:24;6.90;;;2.37;;
12145;SDS011;6136;47.032;15.398;2023-10-31T02:01:53;6.77;;;2.10;;
12145;SDS011;6136;47.032;15.398;2023-10-31T02:04:22;5.83;;;1.97;;
12145;SDS011;6136;47.032;15.398;2023-10-31T02:06:50;3.50;;;2.10;;
12145;SDS011;6136;47.032;15.398;2023-10-31T02:09:18;6.33;;;2.63;;
12145;SDS011;6136;47.032;15.398;2023-10-31T02:11:50;7.93;;;2.40;;
12145;SDS011;6136;47.032;15.398;2023-10-31T02:14:21;4.23;;;1.90;;
12145;SDS011;6136;47.032;15.398;2023-10-31T02:16:49;5.07;;;2.17;;
12145;SDS011;6136;47.032;15.398;2023-10-31T02:19:18;3.70;;;2.03;;
12145;SDS011;6136;47.032;15.398;2023-10-31T02:21:48;3.60;;;2.37;;
12145;SDS011;6136;47.032;15.398;2023-10-31T02:24:16;3.43;;;2.30;;
12145;SDS011;6136;47.032;15.398;2023-10-31T02:26:44;6.77;;;2.83;;
12145;SDS011;6136;47.032;15.398;2023-10-31T02:29:12;4.67;;;2.27;;
12145;SDS011;6136;47.032;15.398;2023-10-31T02:31:40;2.50;;;2.30;;
12145;SDS011;6136;47.032;15.398;2023-10-31T02:34:08;11.60;;;2.20;;
12145;SDS011;6136;47.032;15.398;2023-10-31T02:36:36;7.57;;;2.63;;
12145;SDS011;6136;47.032;15.398;2023-10-31T02:39:06;4.73;;;2.70;;
12145;SDS011;6136;47.032;15.398;2023-10-31T02:41:34;5.53;;;2.37;;
12145;SDS011;6136;47.032;15.398;2023-10-31T02:44:02;3.40;;;2.80;;
12145;SDS011;6136;47.032;15.398;2023-10-31T02:46:30;4.27;;;2.23;;
12145;SDS011;6136;47.032;15.398;2023-10-31T02:48:58;3.43;;;2.17;;
12145;SDS011;6136;47.032;15.398;2023-10-31T02:51:26;4.57;;;2.63;;
12145;SDS011;6136;47.032;15.398;2023-10-31T02:53:54;4.07;;;1.80;;
12145;SDS011;6136;47.032;15.398;2023-10-31T02:56:24;3.07;;;2.20;;
12145;SDS011;6136;47.032;15.398;2023-10-31T02:58:52;3.10;;;2.10;;
12145;SDS011;6136;47.032;15.398;2023-10-31T03:01:20;5.53;;;2.57;;
12145;SDS011;6136;47.032;15.398;2023-10-31T03:03:48;4.63;;;2.60;;
12145;SDS011;6136;47.032;15.398;2023-10-31T03:06:17;5.03;;;2.43;;
12145;SDS011;6136;47.032;15.398;2023-10-31T03:08:45;4.67;;;2.47;;
12145;SDS011;6136;47.032;15.398;2023-10-31T03:11:20;3.83;;;2.47;;
12145;SDS011;6136;47.032;15.398;2023-10-31T03:13:50;5.13;;;2.47;;
12145;SDS011;6136;47.032;15.398;2023-10-31T03:16:19;4.27;;;2.50;;
12145;SDS011;6136;47.032;15.398;2023-10-31T03:18:48;3.43;;;2.40;;
12145;SDS011;6136;47.032;15.398;2023-10-31T03:21:16;5.00;;;2.33;;
12145;SDS011;6136;47.032;15.398;2023-10-31T03:23:46;3.90;;;2.37;;
12145;SDS011;6136;47.032;15.398;2023-10-31T03:26:14;2.97;;;2.30;;
12145;SDS011;6136;47.032;15.398;2023-10-31T03:28:43;4.60;;;2.50;;
12145;SDS011;6136;47.032;15.398;2023-10-31T03:31:13;3.30;;;2.60;;
12145;SDS011;6136;47.032;15.398;2023-10-31T03:33:42;5.67;;;2.77;;
12145;SDS011;6136;47.032;15.398;2023-10-31T03:36:10;6.70;;;3.13;;
12145;SDS011;6136;47.032;15.398;2023-10-31T03:38:38;5.90;;;2.60;;
12145;SDS011;6136;47.032;15.398;2023-10-31T03:41:07;5.33;;;2.40;;
12145;SDS011;6136;47.032;15.398;2023-10-31T03:43:35;5.63;;;2.60;;
12145;SDS011;6136;47.032;15.398;2023-10-31T03:46:04;5.33;;;2.67;;
12145;SDS011;6136;47.032;15.398;2023-10-31T03:48:34;5.20;;;2.67;;
12145;SDS011;6136;47.032;15.398;2023-10-31T03:51:02;2.60;;;2.07;;
12145;SDS011;6136;47.032;15.398;2023-10-31T03:53:30;6.57;;;2.83;;
12145;SDS011;6136;47.032;15.398;2023-10-31T03:55:58;3.23;;;2.63;;
12145;SDS011;6136;47.032;15.398;2023-10-31T03:58:27;6.40;;;2.37;;
12145;SDS011;6136;47.032;15.398;2023-10-31T04:00:55;3.80;;;2.20;;
12145;SDS011;6136;47.032;15.398;2023-10-31T04:03:23;4.97;;;2.30;;
12145;SDS011;6136;47.032;15.398;2023-10-31T04:05:52;3.20;;;2.10;;
12145;SDS011;6136;47.032;15.398;2023-10-31T04:08:21;3.30;;;2.40;;
12145;SDS011;6136;47.032;15.398;2023-10-31T04:10:49;3.57;;;2.57;;
12145;SDS011;6136;47.032;15.398;2023-10-31T04:13:17;5.40;;;2.40;;
12145;SDS011;6136;47.032;15.398;2023-10-31T04:15:45;4.33;;;2.37;;
12145;SDS011;6136;47.032;15.398;2023-10-31T04:18:13;4.73;;;2.57;;
12145;SDS011;6136;47.032;15.398;2023-10-31T04:20:42;3.80;;;2.60;;
12145;SDS011;6136;47.032;15.398;2023-10-31T04:23:11;4.37;;;2.77;;
12145;SDS011;6136;47.032;15.398;2023-10-31T04:25:39;3.17;;;2.50;;
12145;SDS011;6136;47.032;15.398;2023-10-31T04:28:08;2.20;;;2.00;;
12145;SDS011;6136;47.032;15.398;2023-10-31T04:30:36;2.73;;;2.20;;
12145;SDS011;6136;47.032;15.398;2023-10-31T04:33:04;4.67;;;2.43;;
12145;SDS011;6136;47.032;15.398;2023-10-31T04:35:32;2.50;;;2.30;;
12145;SDS011;6136;47.032;15.398;2023-10-31T04:38:00;5.53;;;2.57;;
12145;SDS011;6136;47.032;15.398;2023-10-31T04:40:29;3.67;;;2.50;;
12145;SDS011;6136;47.032;15.398;2023-10-31T04:42:57;5.43;;;2.20;;
12145;SDS011;6136;47.032;15.398;2023-10-31T04:45:25;3.33;;;2.40;;
12145;SDS011;6136;47.032;15.398;2023-10-31T04:47:53;3.70;;;2.60;;
12145;SDS011;6136;47.032;15.398;2023-10-31T04:50:22;4.27;;;2.57;;
12145;SDS011;6136;47.032;15.398;2023-10-31T04:52:50;3.70;;;2.40;;
12145;SDS011;6136;47.032;15.398;2023-10-31T04:55:18;6.53;;;2.43;;
12145;SDS011;6136;47.032;15.398;2023-10-31T04:57:47;3.47;;;2.50;;
12145;SDS011;6136;47.032;15.398;2023-10-31T05:00:15;3.07;;;2.30;;
12145;SDS011;6136;47.032;15.398;2023-10-31T05:02:43;4.43;;;2.30;;
12145;SDS011;6136;47.032;15.398;2023-10-31T05:05:11;4.03;;;2.70;;
12145;SDS011;6136;47.032;15.398;2023-10-31T05:07:40;2.10;;;1.90;;
12145;SDS011;6136;47.032;15.398;2023-10-31T05:10:08;6.63;;;2.23;;
12145;SDS011;6136;47.032;15.398;2023-10-31T05:12:36;4.20;;;2.43;;
12145;SDS011;6136;47.032;15.398;2023-10-31T05:15:07;8.20;;;5.03;;
12145;SDS011;6136;47.032;15.398;2023-10-31T05:17:35;6.97;;;5.23;;
12145;SDS011;6136;47.032;15.398;2023-10-31T05:20:04;4.90;;;3.53;;
12145;SDS011;6136;47.032;15.398;2023-10-31T05:22:32;4.83;;;3.27;;
12145;SDS011;6136;47.032;15.398;2023-10-31T05:25:00;3.37;;;2.93;;
12145;SDS011;6136;47.032;15.398;2023-10-31T05:27:29;3.50;;;3.20;;
12145;SDS011;6136;47.032;15.398;2023-10-31T05:30:00;4.87;;;2.90;;
12145;SDS011;6136;47.032;15.398;2023-10-31T05:32:30;4.50;;;2.50;;
12145;SDS011;6136;47.032;15.398;2023-10-31T05:34:58;4.40;;;2.53;;
12145;SDS011;6136;47.032;15.398;2023-10-31T05:37:26;4.33;;;2.87;;
12145;SDS011;6136;47.032;15.398;2023-10-31T05:39:54;3.23;;;2.93;;
12145;SDS011;6136;47.032;15.398;2023-10-31T05:42:22;2.97;;;2.60;;
12145;SDS011;6136;47.032;15.398;2023-10-31T05:44:51;3.43;;;2.47;;
12145;SDS011;6136;47.032;15.398;2023-10-31T05:47:19;3.10;;;2.80;;
12145;SDS011;6136;47.032;15.398;2023-10-31T05:49:50;4.13;;;2.90;;
12145;SDS011;6136;47.032;15.398;2023-10-31T05:52:18;9.47;;;4.33;;
12145;SDS011;6136;47.032;15.398;2023-10-31T05:54:46;5.80;;;4.10;;
12145;SDS011;6136;47.032;15.398;2023-10-31T05:57:14;7.00;;;4.63;;
12145;SDS011;6136;47.032;15.398;2023-10-31T05:59:42;5.77;;;4.80;;
12145;SDS011;6136;47.032;15.398;2023-10-31T06:02:10;5.53;;;4.37;;
12145;SDS011;6136;47.032;15.398;2023-10-31T06:04:38;6.63;;;4.37;;
12145;SDS011;6136;47.032;15.398;2023-10-31T06:07:08;4.40;;;4.00;;
12145;SDS011;6136;47.032;15.398;2023-10-31T06:09:36;8.17;;;5.00;;
12145;SDS011;6136;47.032;15.398;2023-10-31T06:12:04;6.60;;;4.50;;
12145;SDS011;6136;47.032;15.398;2023-10-31T06:14:33;6.97;;;4.60;;
12145;SDS011;6136;47.032;15.398;2023-10-31T06:17:01;6.53;;;3.90;;
12145;SDS011;6136;47.032;15.398;2023-10-31T06:19:29;10.27;;;3.47;;
12145;SDS011;6136;47.032;15.398;2023-10-31T06:21:57;6.93;;;3.43;;
12145;SDS011;6136;47.032;15.398;2023-10-31T06:24:26;13.20;;;3.73;;
12145;SDS011;6136;47.032;15.398;2023-10-31T06:26:54;5.10;;;3.60;;
12145;SDS011;6136;47.032;15.398;2023-10-31T06:29:22;6.30;;;3.50;;
12145;SDS011;6136;47.032;15.398;2023-10-31T06:31:53;4.50;;;3.43;;
12145;SDS011;6136;47.032;15.398;2023-10-31T06:34:21;8.00;;;4.03;;
12145;SDS011;6136;47.032;15.398;2023-10-31T06:36:49;5.30;;;3.70;;
12145;SDS011;6136;47.032;15.398;2023-10-31T06:39:18;6.67;;;4.80;;
12145;SDS011;6136;47.032;15.398;2023-10-31T06:41:48;8.00;;;3.93;;
12145;SDS011;6136;47.032;15.398;2023-10-31T06:44:16;4.70;;;3.67;;
12145;SDS011;6136;47.032;15.398;2023-10-31T06:46:44;5.77;;;3.37;;
12145;SDS011;6136;47.032;15.398;2023-10-31T06:49:12;6.60;;;3.80;;
12145;SDS011;6136;47.032;15.398;2023-10-31T06:51:40;6.27;;;3.57;;
12145;SDS011;6136;47.032;15.398;2023-10-31T06:54:08;4.50;;;3.70;;
12145;SDS011;6136;47.032;15.398;2023-10-31T06:56:36;4.77;;;3.07;;
12145;SDS011;6136;47.032;15.398;2023-10-31T06:59:06;4.77;;;3.30;;
12145;SDS011;6136;47.032;15.398;2023-10-31T07:01:35;5.67;;;3.30;;
12145;SDS011;6136;47.032;15.398;2023-10-31T07:04:04;5.40;;;3.93;;
12145;SDS011;6136;47.032;15.398;2023-10-31T07:06:33;6.10;;;3.90;;
12145;SDS011;6136;47.032;15.398;2023-10-31T07:09:01;6.00;;;3.43;;
12145;SDS011;6136;47.032;15.398;2023-10-31T07:11:31;5.03;;;3.67;;
12145;SDS011;6136;47.032;15.398;2023-10-31T07:14:00;6.10;;;3.20;;
12145;SDS011;6136;47.032;15.398;2023-10-31T07:16:31;4.97;;;3.63;;
12145;SDS011;6136;47.032;15.398;2023-10-31T07:18:59;6.40;;;4.90;;
12145;SDS011;6136;47.032;15.398;2023-10-31T07:21:28;7.57;;;5.40;;
12145;SDS011;6136;47.032;15.398;2023-10-31T07:23:56;5.80;;;4.27;;
12145;SDS011;6136;47.032;15.398;2023-10-31T07:26:24;8.40;;;4.90;;
12145;SDS011;6136;47.032;15.398;2023-10-31T07:28:54;9.37;;;4.70;;
12145;SDS011;6136;47.032;15.398;2023-10-31T07:31:22;6.00;;;4.53;;
12145;SDS011;6136;47.032;15.398;2023-10-31T07:33:51;7.20;;;4.07;;
12145;SDS011;6136;47.032;15.398;2023-10-31T07:36:19;5.50;;;3.33;;
12145;SDS011;6136;47.032;15.398;2023-10-31T07:38:48;5.40;;;3.97;;
12145;SDS011;6136;47.032;15.398;2023-10-31T07:41:16;4.87;;;4.00;;
12145;SDS011;6136;47.032;15.398;2023-10-31T07:43:44;6.57;;;3.90;;
12145;SDS011;6136;47.032;15.398;2023-10-31T07:46:12;7.83;;;4.27;;
12145;SDS011;6136;47.032;15.398;2023-10-31T07:48:40;8.83;;;4.37;;
12145;SDS011;6136;47.032;15.398;2023-10-31T07:51:09;5.77;;;3.63;;
12145;SDS011;6136;47.032;15.398;2023-10-31T07:53:38;4.40;;;3.80;;
12145;SDS011;6136;47.032;15.398;2023-10-31T07:56:08;5.33;;;4.20;;
12145;SDS011;6136;47.032;15.398;2023-10-31T07:58:42;4.87;;;3.80;;
12145;SDS011;6136;47.032;15.398;2023-10-31T08:01:10;6.97;;;3.83;;
12145;SDS011;6136;47.032;15.398;2023-10-31T08:03:38;7.37;;;4.33;;
12145;SDS011;6136;47.032;15.398;2023-10-31T08:06:06;3.77;;;3.23;;
12145;SDS011;6136;47.032;15.398;2023-10-31T08:08:36;6.27;;;3.50;;
12145;SDS011;6136;47.032;15.398;2023-10-31T08:11:06;3.60;;;3.30;;
12145;SDS011;6136;47.032;15.398;2023-10-31T08:13:35;5.73;;;4.40;;
12145;SDS011;6136;47.032;15.398;2023-10-31T08:16:04;4.77;;;3.77;;
12145;SDS011;6136;47.032;15.398;2023-10-31T08:18:32;4.50;;;3.40;;
12145;SDS011;6136;47.032;15.398;2023-10-31T08:21:01;5.37;;;3.40;;
12145;SDS011;6136;47.032;15.398;2023-10-31T08:23:29;3.87;;;3.10;;
12145;SDS011;6136;47.032;15.398;2023-10-31T08:25:58;6.90;;;3.27;;
12145;SDS011;6136;47.032;15.398;2023-10-31T08:28:27;5.13;;;2.83;;
12145;SDS011;6136;47.032;15.398;2023-10-31T08:30:55;5.33;;;3.60;;
12145;SDS011;6136;47.032;15.398;2023-10-31T08:33:23;3.60;;;3.07;;
12145;SDS011;6136;47.032;15.398;2023-10-31T08:35:51;4.70;;;3.40;;
12145;SDS011;6136;47.032;15.398;2023-10-31T08:38:19;2.87;;;2.67;;
12145;SDS011;6136;47.032;15.398;2023-10-31T08:40:58;9.03;;;3.63;;
12145;SDS011;6136;47.032;15.398;2023-10-31T08:43:26;6.77;;;3.80;;
12145;SDS011;6136;47.032;15.398;2023-10-31T08:45:55;6.77;;;3.90;;
12145;SDS011;6136;47.032;15.398;2023-10-31T08:48:23;5.30;;;3.07;;
12145;SDS011;6136;47.032;15.398;2023-10-31T08:50:51;4.73;;;3.30;;
12145;SDS011;6136;47.032;15.398;2023-10-31T08:53:19;7.10;;;3.17;;
12145;SDS011;6136;47.032;15.398;2023-10-31T08:55:47;7.13;;;3.43;;
12145;SDS011;6136;47.032;15.398;2023-10-31T08:58:17;5.03;;;3.13;;
12145;SDS011;6136;47.032;15.398;2023-10-31T09:00:45;7.33;;;4.13;;
12145;SDS011;6136;47.032;15.398;2023-10-31T09:03:13;7.60;;;3.53;;
12145;SDS011;6136;47.032;15.398;2023-10-31T09:05:41;6.90;;;3.73;;
12145;SDS011;6136;47.032;15.398;2023-10-31T09:08:10;3.80;;;3.23;;
12145;SDS011;6136;47.032;15.398;2023-10-31T09:10:39;5.50;;;3.93;;
12145;SDS011;6136;47.032;15.398;2023-10-31T09:13:09;10.40;;;4.03;;
12145;SDS011;6136;47.032;15.398;2023-10-31T09:15:39;9.27;;;4.30;;
12145;SDS011;6136;47.032;15.398;2023-10-31T09:18:08;9.87;;;5.10;;
12145;SDS011;6136;47.032;15.398;2023-10-31T09:20:36;5.20;;;4.20;;
12145;SDS011;6136;47.032;15.398;2023-10-31T09:23:04;7.50;;;4.10;;
12145;SDS011;6136;47.032;15.398;2023-10-31T09:25:32;11.70;;;6.97;;
12145;SDS011;6136;47.032;15.398;2023-10-31T09:28:00;6.50;;;4.73;;
12145;SDS011;6136;47.032;15.398;2023-10-31T09:30:28;3.80;;;3.03;;
12145;SDS011;6136;47.032;15.398;2023-10-31T09:32:58;3.00;;;1.80;;
12145;SDS011;6136;47.032;15.398;2023-10-31T09:35:26;1.60;;;1.50;;
12145;SDS011;6136;47.032;15.398;2023-10-31T09:37:55;1.90;;;1.60;;
12145;SDS011;6136;47.032;15.398;2023-10-31T09:40:23;1.30;;;1.20;;
12145;SDS011;6136;47.032;15.398;2023-10-31T09:42:51;2.17;;;1.67;;
12145;SDS011;6136;47.032;15.398;2023-10-31T09:45:19;1.00;;;1.00;;
12145;SDS011;6136;47.032;15.398;2023-10-31T09:47:48;2.70;;;1.30;;
12145;SDS011;6136;47.032;15.398;2023-10-31T09:50:17;1.83;;;1.10;;
12145;SDS011;6136;47.032;15.398;2023-10-31T09:52:45;2.93;;;1.33;;
12145;SDS011;6136;47.032;15.398;2023-10-31T09:55:14;1.53;;;1.30;;
12145;SDS011;6136;47.032;15.398;2023-10-31T09:57:42;1.20;;;1.10;;
12145;SDS011;6136;47.032;15.398;2023-10-31T10:00:11;1.40;;;1.30;;
12145;SDS011;6136;47.032;15.398;2023-10-31T10:02:39;1.40;;;1.30;;
12145;SDS011;6136;47.032;15.398;2023-10-31T10:05:08;2.23;;;1.00;;
12145;SDS011;6136;47.032;15.398;2023-10-31T10:07:38;0.93;;;0.87;;
12145;SDS011;6136;47.032;15.398;2023-10-31T10:10:09;1.13;;;1.03;;
12145;SDS011;6136;47.032;15.398;2023-10-31T10:12:38;0.80;;;0.80;;
12145;SDS011;6136;47.032;15.398;2023-10-31T10:15:08;2.00;;;0.90;;
12145;SDS011;6136;47.032;15.398;2023-10-31T10:17:38;1.10;;;0.87;;
12145;SDS011;6136;47.032;15.398;2023-10-31T10:20:07;2.00;;;0.60;;
12145;SDS011;6136;47.032;15.398;2023-10-31T10:22:38;0.97;;;0.70;;
12145;SDS011;6136;47.032;15.398;2023-10-31T10:25:07;1.03;;;1.00;;
12145;SDS011;6136;47.032;15.398;2023-10-31T10:27:35;1.80;;;0.77;;
12145;SDS011;6136;47.032;15.398;2023-10-31T10:30:03;0.90;;;0.90;;
12145;SDS011;6136;47.032;15.398;2023-10-31T10:32:32;0.90;;;0.90;;
12145;SDS011;6136;47.032;15.398;2023-10-31T10:35:00;1.10;;;1.00;;
12145;SDS011;6136;47.032;15.398;2023-10-31T10:37:29;0.80;;;0.80;;
12145;SDS011;6136;47.032;15.398;2023-10-31T10:39:58;0.67;;;0.67;;
12145;SDS011;6136;47.032;15.398;2023-10-31T10:42:30;0.90;;;0.90;;
12145;SDS011;6136;47.032;15.398;2023-10-31T10:45:01;0.80;;;0.80;;
12145;SDS011;6136;47.032;15.398;2023-10-31T10:47:30;1.13;;;0.70;;
12145;SDS011;6136;47.032;15.398;2023-10-31T10:49:59;1.30;;;0.80;;
12145;SDS011;6136;47.032;15.398;2023-10-31T10:52:28;0.40;;;0.40;;
12145;SDS011;6136;47.032;15.398;2023-10-31T10:55:00;0.40;;;0.40;;
12145;SDS011;6136;47.032;15.398;2023-10-31T10:57:32;0.43;;;0.43;;
12145;SDS011;6136;47.032;15.398;2023-10-31T11:00:03;0.43;;;0.30;;
12145;SDS011;6136;47.032;15.398;2023-10-31T11:02:32;0.67;;;0.67;;
12145;SDS011;6136;47.032;15.398;2023-10-31T11:05:02;0.63;;;0.60;;
12145;SDS011;6136;47.032;15.398;2023-10-31T11:07:33;4.23;;;2.27;;
12145;SDS011;6136;47.032;15.398;2023-10-31T11:10:03;1.73;;;1.17;;
12145;SDS011;6136;47.032;15.398;2023-10-31T11:12:32;2.00;;;1.80;;
12145;SDS011;6136;47.032;15.398;2023-10-31T11:15:00;0.93;;;0.93;;
12145;SDS011;6136;47.032;15.398;2023-10-31T11:17:31;0.80;;;0.80;;
12145;SDS011;6136;47.032;15.398;2023-10-31T11:19:59;0.70;;;0.43;;
12145;SDS011;6136;47.032;15.398;2023-10-31T11:22:36;0.60;;;0.60;;
12145;SDS011;6136;47.032;15.398;2023-10-31T11:25:06;0.50;;;0.40;;
12145;SDS011;6136;47.032;15.398;2023-10-31T11:27:41;0.60;;;0.60;;
12145;SDS011;6136;47.032;15.398;2023-10-31T11:30:19;0.50;;;0.50;;
12145;SDS011;6136;47.032;15.398;2023-10-31T11:32:48;0.60;;;0.60;;
12145;SDS011;6136;47.032;15.398;2023-10-31T11:35:17;1.40;;;1.30;;
12145;SDS011;6136;47.032;15.398;2023-10-31T11:37:47;0.57;;;0.50;;
12145;SDS011;6136;47.032;15.398;2023-10-31T11:40:21;0.53;;;0.53;;
12145;SDS011;6136;47.032;15.398;2023-10-31T11:42:50;0.40;;;0.40;;
12145;SDS011;6136;47.032;15.398;2023-10-31T11:45:26;0.40;;;0.40;;
12145;SDS011;6136;47.032;15.398;2023-10-31T11:47:55;0.30;;;0.30;;
12145;SDS011;6136;47.032;15.398;2023-10-31T11:50:23;0.40;;;0.40;;
12145;SDS011;6136;47.032;15.398;2023-10-31T11:52:58;2.80;;;1.17;;
12145;SDS011;6136;47.032;15.398;2023-10-31T11:55:28;0.60;;;0.53;;
12145;SDS011;6136;47.032;15.398;2023-10-31T11:57:56;0.43;;;0.43;;
12145;SDS011;6136;47.032;15.398;2023-10-31T12:00:25;0.50;;;0.50;;
12145;SDS011;6136;47.032;15.398;2023-10-31T12:02:57;0.50;;;0.47;;
12145;SDS011;6136;47.032;15.398;2023-10-31T12:05:25;2.00;;;0.63;;
12145;SDS011;6136;47.032;15.398;2023-10-31T12:07:53;0.50;;;0.50;;
12145;SDS011;6136;47.032;15.398;2023-10-31T12:10:22;0.53;;;0.53;;
12145;SDS011;6136;47.032;15.398;2023-10-31T12:12:52;0.40;;;0.40;;
12145;SDS011;6136;47.032;15.398;2023-10-31T12:15:21;0.60;;;0.60;;
12145;SDS011;6136;47.032;15.398;2023-10-31T12:17:49;0.50;;;0.50;;
12145;SDS011;6136;47.032;15.398;2023-10-31T12:20:17;0.40;;;0.40;;
12145;SDS011;6136;47.032;15.398;2023-10-31T12:22:45;0.50;;;0.50;;
12145;SDS011;6136;47.032;15.398;2023-10-31T12:25:14;0.40;;;0.40;;
12145;SDS011;6136;47.032;15.398;2023-10-31T12:27:42;0.40;;;0.40;;
12145;SDS011;6136;47.032;15.398;2023-10-31T12:30:13;0.50;;;0.50;;
12145;SDS011;6136;47.032;15.398;2023-10-31T12:32:42;0.50;;;0.50;;
12145;SDS011;6136;47.032;15.398;2023-10-31T12:35:10;0.40;;;0.40;;
12145;SDS011;6136;47.032;15.398;2023-10-31T12:37:43;0.50;;;0.50;;
12145;SDS011;6136;47.032;15.398;2023-10-31T12:40:12;0.40;;;0.40;;
12145;SDS011;6136;47.032;15.398;2023-10-31T12:42:42;0.50;;;0.50;;
12145;SDS011;6136;47.032;15.398;2023-10-31T12:45:10;0.63;;;0.63;;
12145;SDS011;6136;47.032;15.398;2023-10-31T12:47:40;0.53;;;0.50;;
12145;SDS011;6136;47.032;15.398;2023-10-31T12:50:09;0.80;;;0.80;;
12145;SDS011;6136;47.032;15.398;2023-10-31T12:52:49;0.80;;;0.70;;
12145;SDS011;6136;47.032;15.398;2023-10-31T12:55:18;1.03;;;0.70;;
12145;SDS011;6136;47.032;15.398;2023-10-31T12:57:46;1.43;;;0.60;;
12145;SDS011;6136;47.032;15.398;2023-10-31T13:00:15;0.80;;;0.80;;
12145;SDS011;6136;47.032;15.398;2023-10-31T13:02:47;0.70;;;0.70;;
12145;SDS011;6136;47.032;15.398;2023-10-31T13:05:15;0.50;;;0.50;;
12145;SDS011;6136;47.032;15.398;2023-10-31T13:07:47;0.50;;;0.50;;
12145;SDS011;6136;47.032;15.398;2023-10-31T13:10:15;0.80;;;0.70;;
12145;SDS011;6136;47.032;15.398;2023-10-31T13:12:44;0.73;;;0.60;;
12145;SDS011;6136;47.032;15.398;2023-10-31T13:15:13;0.87;;;0.80;;
12145;SDS011;6136;47.032;15.398;2023-10-31T13:17:41;0.40;;;0.40;;
12145;SDS011;6136;47.032;15.398;2023-10-31T13:20:12;1.37;;;0.80;;
12145;SDS011;6136;47.032;15.398;2023-10-31T13:22:40;2.30;;;1.10;;
12145;SDS011;6136;47.032;15.398;2023-10-31T13:25:09;1.33;;;1.10;;
12145;SDS011;6136;47.032;15.398;2023-10-31T13:27:39;2.33;;;1.47;;
12145;SDS011;6136;47.032;15.398;2023-10-31T13:30:10;1.33;;;1.23;;
12145;SDS011;6136;47.032;15.398;2023-10-31T13:32:38;1.87;;;1.23;;
12145;SDS011;6136;47.032;15.398;2023-10-31T13:35:07;1.17;;;0.80;;
12145;SDS011;6136;47.032;15.398;2023-10-31T13:37:37;0.77;;;0.77;;
12145;SDS011;6136;47.032;15.398;2023-10-31T13:40:06;0.77;;;0.77;;
12145;SDS011;6136;47.032;15.398;2023-10-31T13:42:35;1.17;;;1.00;;
12145;SDS011;6136;47.032;15.398;2023-10-31T13:45:03;2.43;;;1.10;;
12145;SDS011;6136;47.032;15.398;2023-10-31T13:47:33;1.57;;;1.40;;
12145;SDS011;6136;47.032;15.398;2023-10-31T13:50:01;1.87;;;1.30;;
12145;SDS011;6136;47.032;15.398;2023-10-31T13:52:31;3.80;;;2.37;;
12145;SDS011;6136;47.032;15.398;2023-10-31T13:55:00;2.87;;;1.40;;
12145;SDS011;6136;47.032;15.398;2023-10-31T13:57:28;1.00;;;1.00;;
12145;SDS011;6136;47.032;15.398;2023-10-31T13:59:57;1.10;;;1.00;;
12145;SDS011;6136;47.032;15.398;2023-10-31T14:02:27;1.70;;;0.77;;
12145;SDS011;6136;47.032;15.398;2023-10-31T14:04:55;1.33;;;1.23;;
12145;SDS011;6136;47.032;15.398;2023-10-31T14:07:24;1.70;;;1.27;;
12145;SDS011;6136;47.032;15.398;2023-10-31T14:09:52;1.33;;;1.23;;
12145;SDS011;6136;47.032;15.398;2023-10-31T14:12:24;1.50;;;1.33;;
12145;SDS011;6136;47.032;15.398;2023-10-31T14:14:52;3.27;;;2.07;;
12145;SDS011;6136;47.032;15.398;2023-10-31T14:17:20;2.53;;;1.80;;
12145;SDS011;6136;47.032;15.398;2023-10-31T14:19:49;1.60;;;1.47;;
12145;SDS011;6136;47.032;15.398;2023-10-31T14:22:17;1.40;;;1.30;;
12145;SDS011;6136;47.032;15.398;2023-10-31T14:24:46;2.10;;;1.90;;
12145;SDS011;6136;47.032;15.398;2023-10-31T14:27:14;2.73;;;1.60;;
12145;SDS011;6136;47.032;15.398;2023-10-31T14:29:43;2.20;;;1.87;;
12145;SDS011;6136;47.032;15.398;2023-10-31T14:32:11;2.20;;;1.80;;
12145;SDS011;6136;47.032;15.398;2023-10-31T14:34:40;2.73;;;1.93;;
12145;SDS011;6136;47.032;15.398;2023-10-31T14:37:08;1.50;;;1.40;;
12145;SDS011;6136;47.032;15.398;2023-10-31T14:39:38;1.90;;;1.63;;
12145;SDS011;6136;47.032;15.398;2023-10-31T14:42:06;1.97;;;1.60;;
12145;SDS011;6136;47.032;15.398;2023-10-31T14:44:34;1.57;;;1.37;;
12145;SDS011;6136;47.032;15.398;2023-10-31T14:47:03;2.33;;;1.97;;
12145;SDS011;6136;47.032;15.398;2023-10-31T14:49:32;3.63;;;2.60;;
12145;SDS011;6136;47.032;15.398;2023-10-31T14:52:00;4.03;;;3.17;;
12145;SDS011;6136;47.032;15.398;2023-10-31T14:54:30;4.67;;;2.60;;
12145;SDS011;6136;47.032;15.398;2023-10-31T14:56:59;2.93;;;2.40;;